Arvada, Wyoming
Current Conditions -  °F | °C
As of 10:53 PM on Monday 26 Jan 2015 (Local Time) from KBYG Reporting Station
Clear Clear  
Wind Chill:   Ceiling: Unl
Heat Index:   Visibility: 10mi
Dew Point: -5°   Wind: 9mph
Humidity: 36%   Direction: 340°NNW
Pressure: 30.05"   Gusts: NA
Location:  44.65°N, 106.13°W
Report Text: KBYG 270553Z AUTO 34008KT 10SM CLR 09/M05 A3005 RMK AO2 SLP145 T00941050 10156 20089 56007 $
Loading
Personal Weather Stations






























Interactive Weather Map New forecast layout! Learn more

10-Day Weather Forecast

Advertisements
Track Severe Weather on mobile